Time;durP1;ratioP1;P1;durP2;ratioP2;P2;SDS_P1;SDS_P2;PMS_P1;PMS_P2;Temp;Humidity;BMP_temperature;BMP_pressure;BME280_temperature;BME280_humidity;BME280_pressure;Samples;Min_cycle;Max_cycle;Signal;HPM_P1;HPM_P2
2022/07/20 00:00:23;;;;;;;10.75;8.13;;;;;;;26.19;37.71;101107.41;5007839;28;20489;-59
2022/07/20 00:02:48;;;;;;;10.02;7.90;;;;;;;26.14;39.15;101107.59;5009487;28;20113;-58
2022/07/20 00:05:13;;;;;;;11.38;7.90;;;;;;;26.11;39.05;101113.00;5004018;28;20030;-58
2022/07/20 00:07:39;;;;;;;9.13;8.23;;;;;;;26.01;38.55;101109.84;5003224;28;20386;-59
2022/07/20 00:12:48;;;;;;;10.60;8.18;;;;;;;25.96;38.63;101106.41;5003692;28;20044;-60
2022/07/20 00:15:14;;;;;;;10.05;8.02;;;;;;;25.94;39.20;101112.72;5005232;28;20030;-59
2022/07/20 00:17:39;;;;;;;9.88;7.57;;;;;;;25.89;38.37;101109.38;5005371;28;20382;-59
2022/07/20 00:20:05;;;;;;;9.55;7.78;;;;;;;25.84;39.88;101109.53;5007218;28;20702;-60
2022/07/20 00:22:30;;;;;;;13.65;8.30;;;;;;;25.77;39.63;101111.56;5010300;28;20032;-59
2022/07/20 00:24:55;;;;;;;11.45;7.80;;;;;;;25.71;39.30;101101.09;5006938;28;20032;-59
2022/07/20 00:27:21;;;;;;;9.32;7.63;;;;;;;25.66;40.07;101106.63;5007083;28;20030;-59
2022/07/20 00:29:46;;;;;;;10.15;7.93;;;;;;;25.65;39.43;101103.97;5003005;28;20038;-59
2022/07/20 00:32:11;;;;;;;11.50;7.72;;;;;;;25.62;39.58;101104.06;5004231;28;20030;-60
2022/07/20 00:34:37;;;;;;;9.85;7.88;;;;;;;25.60;40.05;101104.13;5008606;28;20037;-59
2022/07/20 00:37:02;;;;;;;12.45;8.38;;;;;;;25.56;40.18;101099.81;5006443;28;20079;-58
2022/07/20 00:39:27;;;;;;;8.85;7.60;;;;;;;25.51;41.04;101105.31;5007875;28;20095;-58
2022/07/20 00:41:53;;;;;;;11.73;8.20;;;;;;;25.47;41.33;101119.69;5008276;28;20109;-59
2022/07/20 00:44:18;;;;;;;11.20;8.82;;;;;;;25.39;41.18;101160.91;5009346;28;20099;-58
2022/07/20 00:46:45;;;;;;;12.20;9.00;;;;;;;25.31;38.61;101172.69;5008785;28;20502;-59
2022/07/20 00:49:12;;;;;;;11.73;8.77;;;;;;;25.21;39.33;101111.69;5008391;28;20026;-58
2022/07/20 00:51:40;;;;;;;11.57;8.20;;;;;;;25.11;39.13;101111.97;4995626;28;20421;-58
2022/07/20 00:54:06;;;;;;;10.40;8.50;;;;;;;25.12;40.36;101119.06;5003808;28;20068;-59
2022/07/20 00:56:32;;;;;;;13.10;8.68;;;;;;;25.18;39.70;101128.66;5008628;28;20129;-59
2022/07/20 00:58:57;;;;;;;13.23;8.52;;;;;;;25.11;39.28;101149.31;5006495;28;20022;-59
2022/07/20 01:01:22;;;;;;;12.13;8.77;;;;;;;25.14;39.30;101138.56;5008363;28;20405;-59
2022/07/20 01:03:48;;;;;;;13.77;8.63;;;;;;;25.14;39.79;101138.56;5007138;28;20392;-58
2022/07/20 01:06:13;;;;;;;11.50;8.82;;;;;;;25.11;40.20;101151.97;5006913;28;20026;-59
2022/07/20 01:08:39;;;;;;;12.80;9.30;;;;;;;25.06;40.47;101153.94;5006573;28;20521;-60
2022/07/20 01:11:05;;;;;;;13.55;9.70;;;;;;;25.03;38.54;101132.69;5001573;28;20030;-60
2022/07/20 01:13:30;;;;;;;13.02;9.18;;;;;;;24.96;39.15;101144.47;5006334;28;20366;-60
2022/07/20 01:15:56;;;;;;;10.48;9.07;;;;;;;24.91;40.11;101130.41;5007305;28;20547;-60
2022/07/20 01:18:21;;;;;;;12.82;9.00;;;;;;;24.91;40.94;101141.97;5006317;28;20068;-60
2022/07/20 01:20:49;;;;;;;13.95;8.60;;;;;;;24.90;41.98;101145.53;5004270;28;20485;-59
2022/07/20 01:23:15;;;;;;;10.20;9.02;;;;;;;24.87;40.50;101134.09;5005766;28;20061;-59
2022/07/20 01:25:41;;;;;;;11.15;9.38;;;;;;;24.82;41.60;101137.81;5008561;28;20037;-60
2022/07/20 01:28:08;;;;;;;14.50;8.80;;;;;;;24.80;41.86;101139.63;5005891;28;20034;-60
2022/07/20 01:30:34;;;;;;;11.70;9.65;;;;;;;24.82;41.08;101139.56;5011748;28;20057;-59
2022/07/20 01:32:59;;;;;;;13.13;9.13;;;;;;;24.80;41.26;101122.78;5009710;28;20537;-59
2022/07/20 01:35:24;;;;;;;12.75;9.52;;;;;;;24.76;41.40;101129.97;5012948;28;20033;-60
2022/07/20 01:37:50;;;;;;;11.07;9.88;;;;;;;24.69;42.62;101125.75;5011217;28;20025;-60
2022/07/20 01:40:15;;;;;;;14.40;9.68;;;;;;;24.67;42.08;101119.63;5009384;28;20032;-59
2022/07/20 01:42:40;;;;;;;12.18;8.90;;;;;;;24.68;41.97;101117.81;5008796;28;20084;-60
2022/07/20 01:45:06;;;;;;;11.15;9.57;;;;;;;24.62;42.04;101121.53;5011149;28;20040;-60
2022/07/20 01:47:32;;;;;;;11.82;10.07;;;;;;;24.56;42.18;101119.03;5011924;28;20026;-58
2022/07/20 01:49:57;;;;;;;13.45;9.73;;;;;;;24.50;42.47;101127.22;5010630;28;20471;-58
2022/07/20 01:52:22;;;;;;;12.45;9.95;;;;;;;24.44;43.89;101128.28;5008733;28;20076;-59
2022/07/20 01:54:47;;;;;;;14.70;10.50;;;;;;;24.40;42.58;101126.63;5012884;28;20044;-59
2022/07/20 01:57:13;;;;;;;14.35;10.15;;;;;;;24.36;43.09;101128.50;5011936;28;20445;-59
2022/07/20 01:59:38;;;;;;;14.65;10.13;;;;;;;24.29;43.52;101129.59;5011067;28;20030;-59
2022/07/20 02:02:03;;;;;;;16.02;11.23;;;;;;;24.23;43.22;101132.41;5011454;28;20037;-58
2022/07/20 02:04:29;;;;;;;18.38;12.80;;;;;;;24.20;43.02;101135.19;5008733;28;20029;-59
2022/07/20 02:06:54;;;;;;;23.58;11.98;;;;;;;24.14;43.39;101136.22;5010638;28;20017;-58
2022/07/20 02:09:20;;;;;;;16.85;12.43;;;;;;;24.12;43.25;101152.25;5009673;28;20054;-59
2022/07/20 02:11:45;;;;;;;17.35;12.35;;;;;;;24.05;42.61;101163.97;5005683;28;20495;-58
2022/07/20 02:14:10;;;;;;;16.30;12.00;;;;;;;23.93;40.87;101172.31;5007149;28;20030;-59
2022/07/20 02:16:36;;;;;;;13.35;11.02;;;;;;;23.93;40.69;101173.19;5009130;28;20084;-58
2022/07/20 02:19:01;;;;;;;16.38;11.90;;;;;;;23.93;40.30;101172.31;5009403;28;20029;-58
2022/07/20 02:21:29;;;;;;;17.48;12.98;;;;;;;23.96;40.52;101180.22;5010174;28;20068;-59
2022/07/20 02:23:54;;;;;;;22.92;15.35;;;;;;;23.95;41.29;101170.47;5011755;28;20541;-59
2022/07/20 02:26:20;;;;;;;20.17;15.98;;;;;;;23.98;42.15;101167.72;5011093;28;20093;-58
2022/07/20 02:28:45;;;;;;;22.52;17.73;;;;;;;23.99;43.31;101165.97;5010421;28;20026;-59
2022/07/20 02:31:11;;;;;;;29.85;19.75;;;;;;;23.94;44.34;101180.25;5010014;28;20049;-58
2022/07/20 02:33:36;;;;;;;27.45;20.45;;;;;;;23.95;44.68;101171.34;5010582;28;20096;-59
2022/07/20 02:36:02;;;;;;;33.58;23.27;;;;;;;23.94;45.51;101176.69;5010466;28;20159;-58
2022/07/20 02:38:28;;;;;;;35.03;23.52;;;;;;;23.96;46.34;101174.88;5009716;28;20412;-58
2022/07/20 02:40:53;;;;;;;36.45;24.85;;;;;;;23.97;47.17;101173.97;5008926;28;20026;-58
2022/07/20 02:43:19;;;;;;;38.28;25.60;;;;;;;23.98;47.61;101177.50;5010700;28;20121;-59
2022/07/20 02:45:44;;;;;;;41.55;26.98;;;;;;;23.93;48.18;101185.63;5009938;28;20030;-58
2022/07/20 02:48:10;;;;;;;41.47;26.35;;;;;;;23.98;47.42;101185.50;5008545;28;20033;-59
2022/07/20 02:50:38;;;;;;;44.05;29.90;;;;;;;23.92;49.24;101191.84;5011570;28;20037;-60
2022/07/20 02:53:05;;;;;;;49.63;30.58;;;;;;;23.90;50.12;101196.34;5011840;28;21471;-59
2022/07/20 02:55:31;;;;;;;47.97;30.95;;;;;;;23.93;49.21;101190.94;5008320;28;20026;-60
2022/07/20 02:57:56;;;;;;;48.75;30.67;;;;;;;23.99;49.58;101177.47;5009378;28;20030;-59
2022/07/20 03:00:22;;;;;;;50.35;31.75;;;;;;;23.98;50.01;101178.38;5008780;28;20026;-60
2022/07/20 03:02:48;;;;;;;51.33;34.47;;;;;;;23.97;50.70;101179.31;5006230;28;20034;-59
2022/07/20 03:05:13;;;;;;;50.75;33.72;;;;;;;23.99;50.67;101187.25;5010335;28;20065;-60
2022/07/20 03:07:39;;;;;;;54.85;33.95;;;;;;;24.03;50.46;101200.44;5010704;28;20053;-59
2022/07/20 03:10:06;;;;;;;54.80;33.45;;;;;;;24.06;50.63;101203.00;5009349;28;20065;-59
2022/07/20 03:12:31;;;;;;;50.90;34.15;;;;;;;24.04;50.47;101188.88;5006962;28;20107;-60
2022/07/20 03:14:57;;;;;;;56.95;35.15;;;;;;;24.10;50.47;101187.81;5007308;28;20505;-59
2022/07/20 03:17:22;;;;;;;57.28;36.97;;;;;;;24.03;51.62;101184.47;5006242;28;20038;-59
2022/07/20 03:19:47;;;;;;;56.85;36.55;;;;;;;24.04;51.14;101174.66;5006791;28;20490;-59
2022/07/20 03:22:13;;;;;;;62.55;37.10;;;;;;;24.03;51.68;101184.47;5009611;28;20034;-58
2022/07/20 03:24:38;;;;;;;57.85;36.63;;;;;;;24.07;51.48;101193.22;5009735;28;20033;-59
2022/07/20 03:27:04;;;;;;;59.67;36.40;;;;;;;24.07;51.31;101206.53;5009272;28;20160;-59
2022/07/20 03:29:29;;;;;;;60.22;37.67;;;;;;;24.08;51.00;101203.81;5010174;28;20021;-59
2022/07/20 03:31:55;;;;;;;59.47;37.10;;;;;;;24.08;50.97;101219.78;5009303;28;20474;-59
2022/07/20 03:34:20;;;;;;;64.65;39.85;;;;;;;24.09;50.79;101220.69;5006148;28;20459;-59
2022/07/20 03:36:45;;;;;;;60.22;38.78;;;;;;;24.06;51.86;101224.31;5008625;28;20080;-59
2022/07/20 03:39:11;;;;;;;63.75;40.75;;;;;;;24.07;52.62;101239.38;5009349;28;20021;-59
2022/07/20 03:41:36;;;;;;;67.32;42.22;;;;;;;24.03;52.23;101232.38;5008245;28;20524;-59
2022/07/20 03:44:01;;;;;;;70.38;42.45;;;;;;;23.97;54.01;101240.53;5010540;28;20026;-59
2022/07/20 03:46:27;;;;;;;68.90;43.30;;;;;;;23.97;52.84;101245.84;5006053;28;20076;-59
2022/07/20 03:48:52;;;;;;;71.25;42.42;;;;;;;23.96;53.58;101246.75;5009228;28;20049;-60
2022/07/20 03:51:17;;;;;;;70.93;45.10;;;;;;;23.91;54.04;101257.53;5006273;28;20041;-60
2022/07/20 03:53:43;;;;;;;70.20;44.28;;;;;;;23.93;53.47;101254.81;5011153;28;20025;-60
2022/07/20 03:56:08;;;;;;;72.90;44.20;;;;;;;23.93;53.50;101270.78;5003499;28;20036;-60
2022/07/20 03:58:33;;;;;;;73.80;44.75;;;;;;;23.94;53.49;101276.06;5005522;28;20079;-59
2022/07/20 04:00:59;;;;;;;69.07;44.88;;;;;;;23.92;53.06;101279.69;5006290;28;20026;-59
2022/07/20 04:03:24;;;;;;;74.78;44.88;;;;;;;23.91;53.92;101286.81;5008103;28;20443;-60
2022/07/20 04:05:49;;;;;;;73.30;45.35;;;;;;;23.88;54.34;101288.66;5007583;28;20032;-59
2022/07/20 04:08:14;;;;;;;77.05;47.38;;;;;;;23.83;54.44;101295.88;5005937;28;20133;-60
2022/07/20 04:10:40;;;;;;;78.80;46.53;;;;;;;23.81;54.58;101289.69;5004675;28;20029;-59
2022/07/20 04:13:06;;;;;;;80.35;46.97;;;;;;;23.73;55.25;101296.06;5004146;28;20018;-60
2022/07/20 04:15:31;;;;;;;78.47;48.35;;;;;;;23.67;55.60;101293.56;5004966;28;20026;-61
2022/07/20 04:17:57;;;;;;;79.13;47.13;;;;;;;23.64;55.82;101293.63;5007468;28;20041;-60
2022/07/20 04:20:23;;;;;;;77.28;47.63;;;;;;;23.59;55.83;101298.19;5009573;28;20076;-60
2022/07/20 04:22:48;;;;;;;84.10;49.08;;;;;;;23.60;56.18;101303.47;5006831;28;20081;-59
2022/07/20 04:25:14;;;;;;;87.78;48.60;;;;;;;23.60;56.75;101313.25;5004613;28;20100;-59
2022/07/20 04:27:39;;;;;;;80.75;48.08;;;;;;;23.57;56.65;101303.53;5004226;28;20041;-59
2022/07/20 04:30:05;;;;;;;82.35;47.03;;;;;;;23.61;56.04;101309.69;5007522;28;20628;-60
2022/07/20 04:32:30;;;;;;;79.97;48.10;;;;;;;23.59;57.23;101309.72;5009182;28;20368;-59
2022/07/20 04:34:56;;;;;;;79.93;47.70;;;;;;;23.58;56.59;101310.63;5005668;28;20420;-60
2022/07/20 04:37:21;;;;;;;76.05;47.70;;;;;;;23.53;57.00;101311.63;5006758;28;20087;-59
2022/07/20 04:39:47;;;;;;;79.90;46.55;;;;;;;23.54;56.49;101318.72;5002815;28;20642;-59
2022/07/20 04:42:12;;;;;;;76.65;46.20;;;;;;;23.57;56.95;101311.50;5004881;28;20032;-60
2022/07/20 04:44:38;;;;;;;80.13;45.70;;;;;;;23.59;55.95;101322.13;5010399;28;20378;-61
2022/07/20 04:47:03;;;;;;;76.28;46.20;;;;;;;23.59;56.29;101330.09;5006743;28;20022;-61
2022/07/20 04:49:28;;;;;;;71.80;44.75;;;;;;;23.59;56.52;101338.97;5007253;28;20030;-61
2022/07/20 04:51:54;;;;;;;68.18;43.28;;;;;;;23.60;56.16;101342.50;5009388;28;20041;-61
2022/07/20 04:54:21;;;;;;;72.55;44.38;;;;;;;23.61;55.73;101339.81;5008233;28;20045;-61
2022/07/20 04:56:47;;;;;;;67.85;43.75;;;;;;;23.61;55.39;101333.63;5002416;28;20025;-60
2022/07/20 04:59:12;;;;;;;74.93;44.53;;;;;;;23.55;56.85;101342.63;5009462;28;20036;-60
2022/07/20 05:01:38;;;;;;;69.50;42.60;;;;;;;23.54;56.30;101334.66;5006037;28;20466;-59
2022/07/20 05:04:03;;;;;;;65.13;42.08;;;;;;;23.50;56.14;101339.16;5009954;28;20481;-60
2022/07/20 05:06:28;;;;;;;63.58;43.45;;;;;;;23.50;56.23;101344.50;5007052;28;20474;-59
2022/07/20 05:08:54;;;;;;;62.15;40.15;;;;;;;23.50;55.94;101338.31;5012487;28;20564;-59
2022/07/20 05:11:19;;;;;;;65.80;41.28;;;;;;;23.52;56.53;101331.16;5008843;28;20033;-59
2022/07/20 05:13:44;;;;;;;65.90;40.50;;;;;;;23.53;56.34;101332.91;5011061;28;20452;-60
2022/07/20 05:16:10;;;;;;;64.63;40.03;;;;;;;23.52;56.05;101331.16;5009706;28;20025;-59
2022/07/20 05:18:35;;;;;;;63.67;39.35;;;;;;;23.54;56.47;101330.22;5011728;28;20053;-60
2022/07/20 05:21:01;;;;;;;62.53;39.42;;;;;;;23.56;56.23;101335.50;5010770;28;20469;-60
2022/07/20 05:23:26;;;;;;;60.10;38.42;;;;;;;23.58;56.36;101342.53;5007940;28;20117;-60
2022/07/20 05:25:52;;;;;;;54.60;36.97;;;;;;;23.60;55.87;101345.16;5011407;28;20492;-60
2022/07/20 05:28:18;;;;;;;55.60;37.65;;;;;;;23.58;56.61;101342.53;5008157;28;20477;-59
2022/07/20 05:30:47;;;;;;;54.40;35.65;;;;;;;23.58;56.13;101361.16;5012308;28;20084;-60
2022/07/20 05:33:13;;;;;;;54.72;36.60;;;;;;;23.59;56.29;101364.69;5011215;28;20068;-60
2022/07/20 05:35:38;;;;;;;52.85;36.00;;;;;;;23.56;56.50;101376.25;5010964;28;20037;-60
2022/07/20 05:38:04;;;;;;;51.88;35.60;;;;;;;23.46;56.49;101379.16;5010183;28;20477;-60
2022/07/20 05:40:29;;;;;;;53.45;34.58;;;;;;;23.46;56.98;101379.16;5011463;28;20030;-59
2022/07/20 05:42:54;;;;;;;60.53;33.92;;;;;;;23.47;55.98;101381.78;5008847;28;20228;-60
2022/07/20 05:45:20;;;;;;;52.95;34.10;;;;;;;23.44;55.92;101389.84;5010449;28;20083;-60
2022/07/20 05:47:45;;;;;;;49.63;33.70;;;;;;;23.44;56.40;101397.81;5010803;28;20108;-60
2022/07/20 05:50:10;;;;;;;47.03;33.33;;;;;;;23.40;56.46;101410.28;5008514;28;20033;-60
2022/07/20 05:52:36;;;;;;;49.65;33.38;;;;;;;23.46;56.45;101416.41;5008387;28;20499;-60
2022/07/20 05:55:01;;;;;;;48.63;33.78;;;;;;;23.48;56.71;101410.16;5010872;28;20104;-60
2022/07/20 05:57:26;;;;;;;48.97;33.22;;;;;;;23.48;56.47;101419.91;5010100;28;20026;-59
2022/07/20 05:59:52;;;;;;;43.90;31.45;;;;;;;23.43;56.67;101428.88;5010504;28;20030;-60
2022/07/20 06:02:17;;;;;;;47.35;30.92;;;;;;;23.44;56.21;101435.06;5009532;28;20030;-59
2022/07/20 06:04:42;;;;;;;41.90;27.67;;;;;;;23.44;56.24;101438.59;5010169;28;20235;-59
2022/07/20 06:07:07;;;;;;;39.72;28.45;;;;;;;23.46;56.27;101449.19;5009306;28;20307;-60
2022/07/20 06:09:33;;;;;;;42.33;28.63;;;;;;;23.42;55.81;101445.72;5009205;28;20046;-59
2022/07/20 06:11:58;;;;;;;37.47;27.00;;;;;;;23.45;55.96;101458.09;5009551;28;20036;-60
2022/07/20 06:14:24;;;;;;;38.38;26.65;;;;;;;23.40;57.24;101455.50;5009361;28;20054;-60
2022/07/20 06:16:49;;;;;;;39.63;26.88;;;;;;;23.41;56.17;101453.75;5008392;28;20109;-60
2022/07/20 06:19:15;;;;;;;36.38;25.80;;;;;;;23.44;56.68;101467.84;5009148;28;20033;-60
2022/07/20 06:21:40;;;;;;;41.00;26.50;;;;;;;23.42;56.55;101482.97;5008493;28;20030;-60
2022/07/20 06:24:06;;;;;;;35.65;25.05;;;;;;;23.41;56.86;101483.88;5010306;28;20034;-60
2022/07/20 06:26:31;;;;;;;36.17;25.92;;;;;;;23.41;57.11;101494.50;5009062;28;20028;-60
2022/07/20 06:28:56;;;;;;;40.88;25.23;;;;;;;23.39;57.15;101496.34;5008428;28;20096;-60
2022/07/20 06:31:22;;;;;;;32.53;22.75;;;;;;;23.43;57.17;101500.69;5004506;28;20393;-60
2022/07/20 06:33:48;;;;;;;32.70;23.95;;;;;;;23.44;56.59;101497.09;5007281;28;20030;-60
2022/07/20 06:36:13;;;;;;;49.15;25.60;;;;;;;23.44;56.87;101498.91;5010151;28;20026;-60
2022/07/20 06:38:38;;;;;;;32.65;24.00;;;;;;;23.41;57.32;101513.13;5011802;28;20528;-60
2022/07/20 06:41:04;;;;;;;33.13;24.00;;;;;;;23.42;57.04;101528.19;5007327;28;20040;-60
2022/07/20 06:43:29;;;;;;;32.78;23.00;;;;;;;23.43;57.00;101529.06;5001613;28;21207;-59
2022/07/20 06:45:54;;;;;;;34.22;23.30;;;;;;;23.44;57.56;101531.69;5005323;28;20045;-59
2022/07/20 06:48:20;;;;;;;33.00;23.52;;;;;;;23.45;57.60;101535.25;5005635;28;20051;-59
2022/07/20 06:50:46;;;;;;;32.72;23.55;;;;;;;23.48;57.30;101563.53;5006961;28;20018;-59
2022/07/20 06:53:12;;;;;;;33.33;23.92;;;;;;;23.47;57.07;101561.81;5009543;28;20048;-59
2022/07/20 06:55:37;;;;;;;32.67;23.23;;;;;;;23.45;58.11;101559.19;5001734;28;20439;-59
2022/07/20 06:58:02;;;;;;;33.78;23.33;;;;;;;23.46;57.64;101560.03;5010493;28;20453;-59
2022/07/20 07:00:29;;;;;;;31.80;22.67;;;;;;;23.37;57.66;101569.94;5005877;28;20509;-59
2022/07/20 07:02:54;;;;;;;30.00;22.20;;;;;;;23.37;57.25;101561.94;5011894;28;20038;-59
2022/07/20 07:05:20;;;;;;;29.48;22.33;;;;;;;23.37;58.01;101561.09;5005164;28;20022;-59
2022/07/20 07:07:45;;;;;;;29.58;22.52;;;;;;;23.39;57.48;101554.84;5000909;28;20037;-59
2022/07/20 07:10:10;;;;;;;28.75;20.52;;;;;;;23.40;57.68;101556.56;5001762;28;20060;-60
2022/07/20 07:12:36;;;;;;;28.00;21.83;;;;;;;23.40;57.62;101567.22;5004924;28;20026;-59
2022/07/20 07:15:02;;;;;;;27.38;21.17;;;;;;;23.43;58.34;101555.66;5007998;28;20029;-59
2022/07/20 07:17:27;;;;;;;30.27;20.25;;;;;;;23.47;58.00;101553.81;5004752;28;20109;-59
2022/07/20 07:19:53;;;;;;;27.70;21.25;;;;;;;23.54;58.59;101548.34;5009267;28;20378;-59
2022/07/20 07:22:18;;;;;;;28.75;21.73;;;;;;;23.59;57.58;101559.78;5007771;28;20105;-59
2022/07/20 07:24:43;;;;;;;27.10;20.83;;;;;;;23.63;57.24;101557.94;5010847;28;20022;-59
2022/07/20 07:27:09;;;;;;;26.60;21.02;;;;;;;23.68;57.56;101564.06;5010395;28;20030;-59
2022/07/20 07:29:35;;;;;;;23.35;20.42;;;;;;;23.77;57.86;101573.63;5009941;28;20040;-59
2022/07/20 07:32:00;;;;;;;24.48;20.08;;;;;;;23.84;57.06;101582.34;5002410;28;20030;-59
2022/07/20 07:34:26;;;;;;;23.20;19.23;;;;;;;23.90;57.16;101591.16;5002209;28;20272;-60
2022/07/20 07:36:52;;;;;;;25.25;19.40;;;;;;;23.95;56.78;101599.03;5003018;28;20603;-59
2022/07/20 07:39:17;;;;;;;24.75;18.77;;;;;;;23.98;56.75;101611.41;5000369;28;20408;-59
2022/07/20 07:41:42;;;;;;;23.07;18.10;;;;;;;23.95;56.14;101607.00;5002151;28;20029;-59
2022/07/20 07:44:08;;;;;;;25.15;18.58;;;;;;;23.92;56.58;101617.72;5002757;28;20655;-59
2022/07/20 07:46:33;;;;;;;30.20;20.00;;;;;;;23.95;56.53;101623.00;5007277;28;20058;-60
2022/07/20 07:48:58;;;;;;;23.73;18.45;;;;;;;24.01;56.80;101627.31;5010029;28;20304;-59
2022/07/20 07:51:24;;;;;;;22.80;18.65;;;;;;;24.07;56.76;101636.06;5006250;28;20030;-59
2022/07/20 07:53:49;;;;;;;23.30;18.58;;;;;;;24.14;56.53;101631.47;5004243;28;20125;-61
2022/07/20 07:56:14;;;;;;;23.20;17.50;;;;;;;24.18;56.05;101634.97;5000138;28;20451;-61
2022/07/20 07:58:40;;;;;;;23.45;17.10;;;;;;;24.23;56.81;101627.75;5006350;28;20057;-59
2022/07/20 08:01:05;;;;;;;21.05;16.73;;;;;;;24.28;55.93;101624.06;5008605;28;20042;-59
2022/07/20 08:03:30;;;;;;;18.30;15.95;;;;;;;24.35;55.49;101611.50;5007957;28;20053;-58
2022/07/20 08:05:56;;;;;;;20.30;17.48;;;;;;;24.41;56.39;101605.19;5009840;28;20057;-59
2022/07/20 08:08:21;;;;;;;21.10;16.95;;;;;;;24.48;56.37;101602.34;5009715;28;20061;-61
2022/07/20 08:10:46;;;;;;;22.02;16.55;;;;;;;24.56;55.69;101599.47;5009605;28;20026;-60
2022/07/20 08:13:12;;;;;;;20.08;15.57;;;;;;;24.64;54.79;101591.38;5010673;28;20068;-60
2022/07/20 08:15:38;;;;;;;17.25;15.27;;;;;;;24.69;55.36;101593.91;5008955;28;20060;-60
2022/07/20 08:18:04;;;;;;;18.67;14.50;;;;;;;24.78;54.57;101581.25;5009575;28;20030;-61
2022/07/20 08:20:30;;;;;;;22.17;15.02;;;;;;;24.85;55.09;101579.31;5009518;28;20030;-61
2022/07/20 08:22:56;;;;;;;19.08;14.23;;;;;;;24.94;55.21;101579.09;5010748;28;20029;-61
2022/07/20 08:25:22;;;;;;;18.85;14.55;;;;;;;25.02;54.79;101586.91;5010773;28;20034;-61
2022/07/20 08:27:48;;;;;;;21.95;15.38;;;;;;;25.06;53.57;101593.91;5009753;28;20086;-61
2022/07/20 08:30:14;;;;;;;20.20;14.40;;;;;;;25.06;53.15;101588.56;5009194;28;20398;-61
2022/07/20 08:32:40;;;;;;;17.60;15.23;;;;;;;25.14;53.72;101601.69;5008799;28;20493;-61
2022/07/20 08:35:06;;;;;;;18.65;15.13;;;;;;;25.18;53.05;101609.59;5009513;28;20066;-61
2022/07/20 08:37:32;;;;;;;17.80;15.02;;;;;;;25.24;53.04;101621.03;5009387;28;20049;-60
2022/07/20 08:39:57;;;;;;;18.02;14.63;;;;;;;25.27;53.06;101624.47;5010551;28;20029;-61
2022/07/20 08:42:23;;;;;;;17.30;14.10;;;;;;;25.31;51.82;101625.31;5008951;28;20568;-61
2022/07/20 08:44:48;;;;;;;17.48;14.35;;;;;;;25.36;52.48;101627.88;5010274;28;20447;-61
2022/07/20 08:47:15;;;;;;;18.75;14.93;;;;;;;25.36;50.72;101626.09;5009119;28;20084;-61
2022/07/20 08:49:45;;;;;;;17.90;14.95;;;;;;;25.35;51.89;101632.34;5007570;28;20034;-60
2022/07/20 08:52:11;;;;;;;19.40;15.18;;;;;;;25.38;52.08;101616.25;5008189;28;20448;-60
2022/07/20 08:54:37;;;;;;;16.67;14.85;;;;;;;25.45;52.52;101616.97;5010428;28;20112;-60
2022/07/20 08:57:15;;;;;;;17.02;14.10;;;;;;;25.57;52.64;101629.09;5010123;28;20440;-60
2022/07/20 08:59:41;;;;;;;17.38;14.60;;;;;;;25.64;52.47;101612.88;5010211;28;20125;-61
2022/07/20 09:02:08;;;;;;;15.95;14.25;;;;;;;25.74;51.81;101585.91;5008488;28;20113;-61
2022/07/20 09:04:49;;;;;;;17.75;13.65;;;;;;;25.88;52.60;101582.88;5001382;28;20034;-60
2022/07/20 09:07:14;;;;;;;17.90;14.32;;;;;;;25.92;51.97;101581.88;5009088;28;20080;-61
2022/07/20 09:09:39;;;;;;;19.05;14.48;;;;;;;25.93;50.72;101600.50;5007686;28;20049;-60
2022/07/20 09:12:05;;;;;;;16.75;14.55;;;;;;;25.90;49.94;101616.63;5008071;28;20030;-61
2022/07/20 09:14:41;;;;;;;17.10;14.85;;;;;;;25.92;52.35;101624.59;5009684;28;20030;-60
2022/07/20 09:17:21;;;;;;;16.92;14.50;;;;;;;25.96;51.88;101640.47;5010100;28;20029;-61
2022/07/20 09:20:08;;;;;;;16.73;14.82;;;;;;;26.03;50.80;101651.91;5003039;28;20030;-61
2022/07/20 09:22:37;;;;;;;16.45;14.38;;;;;;;26.03;50.48;101665.25;5007931;28;20030;-61
2022/07/20 09:25:10;;;;;;;;;;;;;;;26.12;51.20;101689.03;5007196;28;20072;-61
2022/07/20 09:27:36;;;;;;;17.23;13.63;;;;;;;26.11;50.81;101699.75;5010163;28;19968;-61
2022/07/20 09:30:04;;;;;;;19.70;14.25;;;;;;;26.11;50.31;101713.13;5009871;28;20465;-61
2022/07/20 09:32:29;;;;;;;16.80;14.25;;;;;;;26.12;50.86;101717.53;5007566;28;20038;-60
2022/07/20 09:35:00;;;;;;;17.42;14.30;;;;;;;26.17;51.23;101696.91;5004077;28;20033;-60
2022/07/20 09:37:37;;;;;;;22.05;15.95;;;;;;;26.22;52.32;101691.47;5009301;28;20034;-60
2022/07/20 09:40:03;;;;;;;16.52;14.38;;;;;;;26.28;51.32;101685.94;5006648;28;20439;-60
2022/07/20 09:42:40;;;;;;;18.40;14.88;;;;;;;26.33;50.66;101681.31;5008704;28;20042;-60
2022/07/20 09:45:37;;;;;;;15.73;14.00;;;;;;;26.37;50.72;101680.31;5009927;28;20022;-60
2022/07/20 09:48:05;;;;;;;16.80;13.60;;;;;;;26.42;50.15;101669.47;4974871;28;20053;-60
2022/07/20 09:50:37;;;;;;;17.38;14.05;;;;;;;26.48;50.00;101664.84;5011101;28;20029;-60
2022/07/20 09:53:03;;;;;;;18.23;14.32;;;;;;;26.57;50.72;101668.16;5011763;28;20029;-60
2022/07/20 09:55:30;;;;;;;20.85;14.55;;;;;;;26.70;50.83;101658.88;5011899;28;20036;-60
2022/07/20 09:57:56;;;;;;;16.95;13.05;;;;;;;26.77;50.02;101648.88;5010686;28;20030;-60
2022/07/20 10:00:21;;;;;;;16.08;12.88;;;;;;;26.87;50.08;101645.84;5013180;28;20049;-60
2022/07/20 10:02:48;;;;;;;16.60;13.23;;;;;;;27.03;50.84;101664.06;5012028;28;20041;-60
2022/07/20 10:05:17;;;;;;;14.60;13.02;;;;;;;27.07;48.68;101665.72;5012147;28;20029;-60
2022/07/20 10:07:43;;;;;;;16.65;13.45;;;;;;;27.13;47.96;101670.88;5012881;28;20092;-60
2022/07/20 10:10:09;;;;;;;15.48;13.10;;;;;;;27.16;49.16;101668.09;5013019;28;20037;-61
2022/07/20 10:12:35;;;;;;;15.02;12.85;;;;;;;27.19;49.12;101681.38;5011495;28;20030;-60
2022/07/20 10:15:02;;;;;;;17.00;13.90;;;;;;;27.20;48.35;101680.44;5012911;28;20076;-60
2022/07/20 10:17:32;;;;;;;18.58;14.00;;;;;;;27.22;48.68;101683.94;5012727;28;20374;-60
2022/07/20 10:19:57;;;;;;;13.73;11.68;;;;;;;27.28;47.67;101682.88;5012821;28;20511;-60
2022/07/20 10:22:22;;;;;;;14.75;12.00;;;;;;;27.28;47.29;101673.97;5009009;28;20038;-61
2022/07/20 10:25:17;;;;;;;12.98;11.57;;;;;;;27.25;46.63;101673.13;5011031;28;20448;-60
2022/07/20 10:27:43;;;;;;;14.27;11.32;;;;;;;27.15;46.68;101660.97;5007641;28;20392;-60
2022/07/20 10:30:19;;;;;;;11.73;10.48;;;;;;;27.15;48.15;101660.13;5010315;28;20460;-60
2022/07/20 10:32:56;;;;;;;13.98;10.90;;;;;;;27.14;48.01;101672.63;5011516;28;20413;-60
2022/07/20 10:35:30;;;;;;;15.30;11.50;;;;;;;27.18;48.01;101670.72;5007003;28;20104;-60
2022/07/20 10:37:56;;;;;;;14.75;12.05;;;;;;;27.21;48.84;101676.84;5010378;28;20026;-60
2022/07/20 10:40:24;;;;;;;15.73;12.85;;;;;;;27.30;49.12;101669.44;5012296;28;20018;-60
2022/07/20 10:43:14;;;;;;;14.02;11.68;;;;;;;27.42;48.37;101666.38;5012338;28;20025;-60
2022/07/20 10:45:40;;;;;;;14.55;12.13;;;;;;;27.45;47.91;101660.06;5012045;28;20045;-60
2022/07/20 10:48:16;;;;;;;15.05;11.60;;;;;;;27.53;48.47;101664.22;4993962;28;20026;-60
2022/07/20 10:50:43;;;;;;;13.10;11.25;;;;;;;27.62;47.29;101664.81;5009114;28;20488;-60
2022/07/20 10:53:12;;;;;;;13.90;10.82;;;;;;;27.70;47.42;101652.03;5011586;28;20065;-60
2022/07/20 10:55:37;;;;;;;13.77;10.38;;;;;;;27.77;46.38;101646.41;5010764;28;20030;-60
2022/07/20 10:58:07;;;;;;;11.77;9.63;;;;;;;27.86;46.53;101653.22;5009389;28;20125;-59
2022/07/20 11:00:34;;;;;;;11.88;9.45;;;;;;;27.93;46.79;101661.91;5011404;28;20037;-60
2022/07/20 11:03:17;;;;;;;13.57;10.53;;;;;;;28.00;46.55;101670.66;5010322;28;20481;-60
2022/07/20 11:05:44;;;;;;;12.77;9.40;;;;;;;28.07;45.76;101680.22;5009155;28;20029;-60
2022/07/20 11:08:11;;;;;;;12.93;10.30;;;;;;;28.15;46.48;101671.88;5010531;28;20095;-61
2022/07/20 11:10:37;;;;;;;13.75;10.27;;;;;;;28.21;45.60;101672.50;5009865;28;20393;-61